createdAt,value
2022-11-03T00:00:12.846Z,942.10
2022-11-03T00:01:11.446Z,942.14
2022-11-03T00:02:11.547Z,942.16
2022-11-03T00:03:11.383Z,942.26
2022-11-03T00:04:11.393Z,942.20
2022-11-03T00:05:11.402Z,942.21
2022-11-03T00:06:11.434Z,942.20
2022-11-03T00:07:11.502Z,942.23
2022-11-03T00:09:11.452Z,942.24
2022-11-03T00:10:11.465Z,942.25
2022-11-03T00:11:11.477Z,942.26
2022-11-03T00:12:11.492Z,942.23
2022-11-03T00:13:11.501Z,942.27
2022-11-03T00:14:11.513Z,942.27
2022-11-03T00:15:11.528Z,942.24
2022-11-03T00:16:11.536Z,942.26
2022-11-03T00:17:11.551Z,942.21
2022-11-03T00:18:11.564Z,942.22
2022-11-03T00:19:11.576Z,942.25
2022-11-03T00:20:11.585Z,942.24
2022-11-03T00:21:11.599Z,942.30
2022-11-03T00:22:11.612Z,942.30
2022-11-03T00:23:11.646Z,942.31
2022-11-03T00:24:11.636Z,942.34
2022-11-03T00:25:11.650Z,942.27
2022-11-03T00:26:11.660Z,942.28
2022-11-03T00:27:11.718Z,942.19
2022-11-03T00:28:11.684Z,942.23
2022-11-03T00:29:11.697Z,942.16
2022-11-03T00:30:11.712Z,942.13
2022-11-03T00:31:11.720Z,942.14
2022-11-03T00:32:11.735Z,942.10
2022-11-03T00:33:11.747Z,942.07
2022-11-03T00:34:11.776Z,942.00
2022-11-03T00:35:11.771Z,941.99
2022-11-03T00:36:11.783Z,942.00
2022-11-03T00:37:11.793Z,942.01
2022-11-03T00:38:11.807Z,942.02
2022-11-03T00:39:11.840Z,941.98
2022-11-03T00:40:11.829Z,941.95
2022-11-03T00:41:11.842Z,941.92
2022-11-03T00:42:11.855Z,941.91
2022-11-03T00:43:11.868Z,941.94
2022-11-03T00:44:11.886Z,941.94
2022-11-03T00:45:11.891Z,941.95
2022-11-03T00:46:11.903Z,941.94
2022-11-03T00:47:11.915Z,941.91
2022-11-03T00:48:11.930Z,941.93
2022-11-03T00:49:11.938Z,941.92
2022-11-03T00:50:11.950Z,941.96
2022-11-03T00:51:11.967Z,941.92
2022-11-03T00:52:11.975Z,941.97
2022-11-03T00:53:11.989Z,941.98
2022-11-03T00:54:12.003Z,941.96
2022-11-03T00:55:12.036Z,942.01
2022-11-03T00:56:12.023Z,942.03
2022-11-03T00:57:12.036Z,941.99
2022-11-03T00:58:12.049Z,941.97
2022-11-03T00:59:12.064Z,941.98
2022-11-03T01:00:12.073Z,941.98
2022-11-03T01:01:12.210Z,941.97
2022-11-03T01:02:12.209Z,941.92
2022-11-03T01:03:12.110Z,941.90
2022-11-03T01:04:12.123Z,941.90
2022-11-03T01:05:12.135Z,941.94
2022-11-03T01:06:12.144Z,941.93
2022-11-03T01:07:12.158Z,941.91
2022-11-03T01:08:12.170Z,941.95
2022-11-03T01:09:12.182Z,941.96
2022-11-03T01:10:12.194Z,941.91
2022-11-03T01:11:12.233Z,942.01
2022-11-03T01:12:12.219Z,942.01
2022-11-03T01:13:12.230Z,941.97
2022-11-03T01:14:12.242Z,941.97
2022-11-03T01:15:12.255Z,941.97
2022-11-03T01:16:12.267Z,941.98
2022-11-03T01:17:12.278Z,941.99
2022-11-03T01:18:12.293Z,942.02
2022-11-03T01:19:12.305Z,942.01
2022-11-03T01:20:12.315Z,942.09
2022-11-03T01:21:12.327Z,942.09
2022-11-03T01:22:12.338Z,942.06
2022-11-03T01:23:12.352Z,942.06
2022-11-03T01:24:12.363Z,942.07
2022-11-03T01:25:12.374Z,942.05
2022-11-03T01:26:12.389Z,942.00
2022-11-03T01:27:12.419Z,942.05
2022-11-03T01:28:12.439Z,942.00
2022-11-03T01:29:12.426Z,941.97
2022-11-03T01:30:12.543Z,941.97
2022-11-03T01:31:12.447Z,941.93
2022-11-03T01:32:12.473Z,941.88
2022-11-03T01:33:12.471Z,941.87
2022-11-03T01:34:12.485Z,941.87
2022-11-03T01:35:12.500Z,941.87
2022-11-03T01:36:12.509Z,941.88
2022-11-03T01:37:12.520Z,941.85
2022-11-03T01:38:12.532Z,941.85
2022-11-03T01:39:12.546Z,941.87
2022-11-03T01:40:12.556Z,941.87
2022-11-03T01:41:12.569Z,941.83
2022-11-03T01:42:12.582Z,941.84
2022-11-03T01:43:12.613Z,941.84
2022-11-03T01:44:12.606Z,941.80
2022-11-03T01:45:12.618Z,941.77
2022-11-03T01:46:12.630Z,941.77
2022-11-03T01:47:12.643Z,941.75
2022-11-03T01:48:12.655Z,941.76
2022-11-03T01:49:12.665Z,941.75
2022-11-03T01:50:12.680Z,941.65
2022-11-03T01:51:12.691Z,941.68
2022-11-03T01:52:12.700Z,941.66
2022-11-03T01:53:12.714Z,941.64
2022-11-03T01:54:12.727Z,941.68
2022-11-03T01:55:12.738Z,941.66
2022-11-03T01:56:12.752Z,941.60
2022-11-03T01:57:12.762Z,941.62
2022-11-03T01:58:12.775Z,941.68
2022-11-03T01:59:12.808Z,941.72
2022-11-03T02:00:12.804Z,941.69
2022-11-03T02:01:12.968Z,941.67
2022-11-03T02:02:13.021Z,941.69
2022-11-03T02:03:12.834Z,941.74
2022-11-03T02:04:12.863Z,941.73
2022-11-03T02:05:12.857Z,941.75
2022-11-03T02:06:12.871Z,941.73
2022-11-03T02:07:12.881Z,941.76
2022-11-03T02:08:12.897Z,941.74
2022-11-03T02:09:12.908Z,941.69
2022-11-03T02:10:12.919Z,941.75
2022-11-03T02:11:12.933Z,941.70
2022-11-03T02:12:12.942Z,941.69
2022-11-03T02:13:12.954Z,941.71
2022-11-03T02:14:12.966Z,941.71
2022-11-03T02:15:12.999Z,941.70
2022-11-03T02:16:12.991Z,941.67
2022-11-03T02:17:13.008Z,941.70
2022-11-03T02:18:13.016Z,941.70
2022-11-03T02:19:13.025Z,941.67
2022-11-03T02:20:13.040Z,941.61
2022-11-03T02:21:13.049Z,941.56
2022-11-03T02:22:13.064Z,941.48
2022-11-03T02:23:13.080Z,941.42
2022-11-03T02:24:13.087Z,941.33
2022-11-03T02:25:13.100Z,941.28
2022-11-03T02:26:13.112Z,941.28
2022-11-03T02:27:13.123Z,941.25
2022-11-03T02:28:13.137Z,941.28
2022-11-03T02:29:13.147Z,941.33
2022-11-03T02:30:13.157Z,941.33
2022-11-03T02:31:13.194Z,941.37
2022-11-03T02:32:13.182Z,941.39
2022-11-03T02:33:13.198Z,941.39
2022-11-03T02:34:13.208Z,941.36
2022-11-03T02:35:13.218Z,941.39
2022-11-03T02:36:13.231Z,941.39
2022-11-03T02:37:13.242Z,941.43
2022-11-03T02:38:13.255Z,941.38
2022-11-03T02:39:13.267Z,941.41
2022-11-03T02:40:13.282Z,941.41
2022-11-03T02:41:13.291Z,941.36
2022-11-03T02:42:13.304Z,941.26
2022-11-03T02:43:13.317Z,941.30
2022-11-03T02:44:13.327Z,941.25
2022-11-03T02:45:16.477Z,941.18
2022-11-03T02:46:13.351Z,941.21
2022-11-03T02:47:13.381Z,941.16
2022-11-03T02:48:13.376Z,941.19
2022-11-03T02:49:13.385Z,941.14
2022-11-03T02:50:13.400Z,941.14
2022-11-03T02:51:13.411Z,941.18
2022-11-03T02:52:13.426Z,941.24
2022-11-03T02:53:13.433Z,941.26
2022-11-03T02:54:13.447Z,941.26
2022-11-03T02:55:13.461Z,941.20
2022-11-03T02:56:13.472Z,941.23
2022-11-03T02:57:13.483Z,941.22
2022-11-03T02:58:13.499Z,941.22
2022-11-03T02:59:13.514Z,941.19
2022-11-03T03:00:13.519Z,941.15
2022-11-03T03:01:13.648Z,941.14
2022-11-03T03:02:13.733Z,941.17
2022-11-03T03:03:13.574Z,941.12
2022-11-03T03:04:13.566Z,941.18
2022-11-03T03:05:13.679Z,941.20
2022-11-03T03:06:13.592Z,941.16
2022-11-03T03:07:13.603Z,941.17
2022-11-03T03:08:13.614Z,941.12
2022-11-03T03:09:13.626Z,941.13
2022-11-03T03:10:13.640Z,941.05
2022-11-03T03:11:13.653Z,941.02
2022-11-03T03:12:13.663Z,941.00
2022-11-03T03:13:13.675Z,940.96
2022-11-03T03:14:13.690Z,940.93
2022-11-03T03:15:13.701Z,940.94
2022-11-03T03:16:13.710Z,940.92
2022-11-03T03:17:13.721Z,940.93
2022-11-03T03:18:13.734Z,940.89
2022-11-03T03:19:13.763Z,940.89
2022-11-03T03:20:13.757Z,940.87
2022-11-03T03:21:13.769Z,940.87
2022-11-03T03:22:13.782Z,940.90
2022-11-03T03:23:14.238Z,940.86
2022-11-03T03:24:13.807Z,940.89
2022-11-03T03:25:13.818Z,940.89
2022-11-03T03:26:13.829Z,940.94
2022-11-03T03:27:13.843Z,940.91
2022-11-03T03:28:13.854Z,940.88
2022-11-03T03:29:13.866Z,940.90
2022-11-03T03:30:13.878Z,940.89
2022-11-03T03:31:13.889Z,940.89
2022-11-03T03:32:13.907Z,940.83
2022-11-03T03:33:14.054Z,940.77
2022-11-03T03:34:33.824Z,940.72
2022-11-03T03:35:13.955Z,940.74
2022-11-03T03:36:13.951Z,940.71
2022-11-03T03:37:13.959Z,940.68
2022-11-03T03:38:13.972Z,940.68
2022-11-03T03:39:13.987Z,940.67
2022-11-03T03:40:13.999Z,940.66
2022-11-03T03:41:14.009Z,940.61
2022-11-03T03:42:14.052Z,940.66
2022-11-03T03:43:14.033Z,940.65
2022-11-03T03:44:14.045Z,940.65
2022-11-03T03:45:14.057Z,940.64
2022-11-03T03:46:14.069Z,940.63
2022-11-03T03:47:14.085Z,940.57
2022-11-03T03:48:14.093Z,940.61
2022-11-03T03:49:14.107Z,940.57
2022-11-03T03:50:14.119Z,940.58
2022-11-03T03:51:14.148Z,940.50
2022-11-03T03:52:14.144Z,940.48
2022-11-03T03:53:14.153Z,940.51
2022-11-03T03:54:14.166Z,940.44
2022-11-03T03:55:14.294Z,940.42
2022-11-03T03:56:14.192Z,940.45
2022-11-03T03:57:14.200Z,940.39
2022-11-03T03:58:14.212Z,940.43
2022-11-03T03:59:14.227Z,940.37
2022-11-03T04:00:14.237Z,940.39
2022-11-03T04:01:14.374Z,940.35
2022-11-03T04:02:14.433Z,940.37
2022-11-03T04:03:14.273Z,940.35
2022-11-03T04:04:14.287Z,940.38
2022-11-03T04:05:14.309Z,940.32
2022-11-03T04:06:14.307Z,940.32
2022-11-03T04:07:14.339Z,940.33
2022-11-03T04:08:14.334Z,940.28
2022-11-03T04:09:14.343Z,940.22
2022-11-03T04:10:14.356Z,940.23
2022-11-03T04:11:14.366Z,940.16
2022-11-03T04:12:14.379Z,940.17
2022-11-03T04:13:14.392Z,940.21
2022-11-03T04:14:14.404Z,940.21
2022-11-03T04:15:14.413Z,940.22
2022-11-03T04:16:14.426Z,940.19
2022-11-03T04:17:14.439Z,940.24
2022-11-03T04:18:14.450Z,940.22
2022-11-03T04:19:14.461Z,940.21
2022-11-03T04:20:14.472Z,940.18
2022-11-03T04:21:14.484Z,940.19
2022-11-03T04:22:14.499Z,940.18
2022-11-03T04:23:14.531Z,940.14
2022-11-03T04:24:14.521Z,940.12
2022-11-03T04:25:14.532Z,940.12
2022-11-03T04:26:14.545Z,940.06
2022-11-03T04:27:14.557Z,940.08
2022-11-03T04:28:14.569Z,940.02
2022-11-03T04:29:14.587Z,940.04
2022-11-03T04:30:14.595Z,940.06
2022-11-03T04:31:14.605Z,939.98
2022-11-03T04:32:14.615Z,939.97
2022-11-03T04:33:14.630Z,939.97
2022-11-03T04:34:14.652Z,939.93
2022-11-03T04:35:14.654Z,939.94
2022-11-03T04:36:14.663Z,939.94
2022-11-03T04:37:14.677Z,939.93
2022-11-03T04:38:14.689Z,939.98
2022-11-03T04:39:14.786Z,939.94
2022-11-03T04:40:14.718Z,939.93
2022-11-03T04:41:14.726Z,939.85
2022-11-03T04:42:14.734Z,939.88
2022-11-03T04:43:14.748Z,939.83
2022-11-03T04:44:14.761Z,939.85
2022-11-03T04:45:14.770Z,939.83
2022-11-03T04:46:14.782Z,939.87
2022-11-03T04:47:14.795Z,939.80
2022-11-03T04:48:14.808Z,939.81
2022-11-03T04:49:14.820Z,939.83
2022-11-03T04:50:14.829Z,939.79
2022-11-03T04:51:14.841Z,939.83
2022-11-03T04:52:14.854Z,939.78
2022-11-03T04:53:14.867Z,939.74
2022-11-03T04:54:14.879Z,939.73
2022-11-03T04:55:14.907Z,939.73
2022-11-03T04:56:14.904Z,939.68
2022-11-03T04:57:14.921Z,939.72
2022-11-03T04:58:14.925Z,939.64
2022-11-03T04:59:14.937Z,939.65
2022-11-03T05:00:14.949Z,939.66
2022-11-03T05:01:18.269Z,939.60
2022-11-03T05:02:14.973Z,939.64
2022-11-03T05:03:14.982Z,939.61
2022-11-03T05:04:14.995Z,939.63
2022-11-03T05:05:15.009Z,939.58
2022-11-03T05:06:15.020Z,939.56
2022-11-03T05:07:15.032Z,939.52
2022-11-03T05:08:15.043Z,939.53
2022-11-03T05:09:15.055Z,939.47
2022-11-03T05:10:15.066Z,939.53
2022-11-03T05:11:15.098Z,939.48
2022-11-03T05:12:15.088Z,939.49
2022-11-03T05:13:15.104Z,939.50
2022-11-03T05:14:15.112Z,939.47
2022-11-03T05:15:15.127Z,939.47
2022-11-03T05:16:15.139Z,939.48
2022-11-03T05:17:15.153Z,939.44
2022-11-03T05:18:15.159Z,939.46
2022-11-03T05:19:15.172Z,939.48
2022-11-03T05:20:15.186Z,939.49
2022-11-03T05:21:15.201Z,939.44
2022-11-03T05:22:15.209Z,939.44
2022-11-03T05:23:15.222Z,939.49
2022-11-03T05:25:15.248Z,939.44
2022-11-03T05:26:15.257Z,939.43
2022-11-03T05:27:15.287Z,939.42
2022-11-03T05:28:15.281Z,939.41
2022-11-03T05:29:15.292Z,939.42
2022-11-03T05:30:15.301Z,939.49
2022-11-03T05:31:15.318Z,939.47
2022-11-03T05:32:15.326Z,939.47
2022-11-03T05:33:15.337Z,939.46
2022-11-03T05:34:15.354Z,939.50
2022-11-03T05:35:15.378Z,939.49
2022-11-03T05:36:15.378Z,939.47
2022-11-03T05:37:15.390Z,939.46
2022-11-03T05:38:15.399Z,939.43
2022-11-03T05:39:15.410Z,939.43
2022-11-03T05:40:15.421Z,939.41
2022-11-03T05:41:15.458Z,939.41
2022-11-03T05:42:15.446Z,939.41
2022-11-03T05:43:15.476Z,939.40
2022-11-03T05:44:15.471Z,939.40
2022-11-03T05:45:15.479Z,939.39
2022-11-03T05:46:15.559Z,939.40
2022-11-03T05:47:15.504Z,939.33
2022-11-03T05:48:15.516Z,939.35
2022-11-03T05:49:15.528Z,939.32
2022-11-03T05:50:15.542Z,939.29
2022-11-03T05:51:15.552Z,939.29
2022-11-03T05:52:15.564Z,939.28
2022-11-03T05:53:15.574Z,939.26
2022-11-03T05:54:18.621Z,939.27
2022-11-03T05:55:15.597Z,939.24
2022-11-03T05:56:15.608Z,939.26
2022-11-03T05:57:15.621Z,939.31
2022-11-03T05:58:15.633Z,939.31
2022-11-03T05:59:15.666Z,939.33
2022-11-03T06:00:15.656Z,939.32
2022-11-03T06:01:15.720Z,939.31
2022-11-03T06:02:15.810Z,939.31
2022-11-03T06:03:15.692Z,939.32
2022-11-03T06:04:15.703Z,939.37
2022-11-03T06:05:15.717Z,939.38
2022-11-03T06:06:15.728Z,939.39
2022-11-03T06:07:15.742Z,939.38
2022-11-03T06:08:15.782Z,939.39
2022-11-03T06:09:15.762Z,939.38
2022-11-03T06:10:15.773Z,939.40
2022-11-03T06:11:15.787Z,939.36
2022-11-03T06:12:15.799Z,939.29
2022-11-03T06:13:15.810Z,939.31
2022-11-03T06:14:19.916Z,939.30
2022-11-03T06:15:15.857Z,939.31
2022-11-03T06:16:15.845Z,939.29
2022-11-03T06:17:15.856Z,939.29
2022-11-03T06:18:15.868Z,939.29
2022-11-03T06:19:15.881Z,939.32
2022-11-03T06:20:15.894Z,939.30
2022-11-03T06:21:15.905Z,939.32
2022-11-03T06:22:15.916Z,939.32
2022-11-03T06:23:15.931Z,939.30
2022-11-03T06:24:15.941Z,939.28
2022-11-03T06:25:15.956Z,939.30
2022-11-03T06:26:15.965Z,939.28
2022-11-03T06:27:15.979Z,939.24
2022-11-03T06:28:16.000Z,939.24
2022-11-03T06:29:16.000Z,939.25
2022-11-03T06:30:16.008Z,939.24
2022-11-03T06:31:18.895Z,939.24
2022-11-03T06:32:16.033Z,939.26
2022-11-03T06:33:16.054Z,939.33
2022-11-03T06:34:16.058Z,939.34
2022-11-03T06:35:16.072Z,939.31
2022-11-03T06:36:16.081Z,939.39
2022-11-03T06:37:16.091Z,939.37
2022-11-03T06:38:16.104Z,939.36
2022-11-03T06:39:16.116Z,939.38
2022-11-03T06:40:16.129Z,939.38
2022-11-03T06:41:16.140Z,939.39
2022-11-03T06:42:16.153Z,939.40
2022-11-03T06:43:16.162Z,939.40
2022-11-03T06:44:16.175Z,939.42
2022-11-03T06:45:16.186Z,939.44
2022-11-03T06:46:16.200Z,939.38
2022-11-03T06:47:16.230Z,939.41
2022-11-03T06:48:16.222Z,939.38
2022-11-03T06:49:16.233Z,939.34
2022-11-03T06:50:16.248Z,939.35
2022-11-03T06:51:16.257Z,939.37
2022-11-03T06:52:16.270Z,939.36
2022-11-03T06:53:16.280Z,939.34
2022-11-03T06:54:16.294Z,939.32
2022-11-03T06:55:17.057Z,939.37
2022-11-03T06:56:16.316Z,939.40
2022-11-03T06:57:16.327Z,939.37
2022-11-03T06:58:16.340Z,939.47
2022-11-03T06:59:16.352Z,939.37
2022-11-03T07:00:40.691Z,939.41
2022-11-03T07:01:16.600Z,939.35
2022-11-03T07:02:16.495Z,939.39
2022-11-03T07:03:16.423Z,939.35
2022-11-03T07:04:16.409Z,939.33
2022-11-03T07:05:16.421Z,939.39
2022-11-03T07:06:16.449Z,939.32
2022-11-03T07:07:16.477Z,939.36
2022-11-03T07:08:16.454Z,939.34
2022-11-03T07:09:16.466Z,939.36
2022-11-03T07:10:16.479Z,939.36
2022-11-03T07:11:16.504Z,939.33
2022-11-03T07:12:16.503Z,939.36
2022-11-03T07:13:16.530Z,939.37
2022-11-03T07:14:16.529Z,939.37
2022-11-03T07:15:16.548Z,939.40
2022-11-03T07:16:18.840Z,939.37
2022-11-03T07:17:16.564Z,939.40
2022-11-03T07:18:16.586Z,939.38
2022-11-03T07:19:16.604Z,939.38
2022-11-03T07:20:16.598Z,939.38
2022-11-03T07:21:16.608Z,939.41
2022-11-03T07:22:16.627Z,939.38
2022-11-03T07:23:16.631Z,939.42
2022-11-03T07:24:16.644Z,939.44
2022-11-03T07:25:16.654Z,939.42
2022-11-03T07:26:16.668Z,939.42
2022-11-03T07:27:16.684Z,939.39
2022-11-03T07:28:16.689Z,939.41
2022-11-03T07:29:16.705Z,939.42
2022-11-03T07:30:16.716Z,939.37
2022-11-03T07:31:16.896Z,939.39
2022-11-03T07:32:16.739Z,939.38
2022-11-03T07:33:16.750Z,939.36
2022-11-03T07:34:16.762Z,939.33
2022-11-03T07:35:16.790Z,939.38
2022-11-03T07:36:17.184Z,939.43
2022-11-03T07:37:16.798Z,939.37
2022-11-03T07:38:16.811Z,939.40
2022-11-03T07:39:16.822Z,939.44
2022-11-03T07:40:16.832Z,939.49
2022-11-03T07:41:16.843Z,939.46
2022-11-03T07:42:16.854Z,939.45
2022-11-03T07:43:16.867Z,939.46
2022-11-03T07:44:16.879Z,939.44
2022-11-03T07:45:16.890Z,939.42
2022-11-03T07:46:16.903Z,939.42
2022-11-03T07:47:16.926Z,939.41
2022-11-03T07:48:16.924Z,939.46
2022-11-03T07:49:16.935Z,939.47
2022-11-03T07:50:16.950Z,939.43
2022-11-03T07:51:16.978Z,939.48
2022-11-03T07:52:16.976Z,939.42
2022-11-03T07:53:19.858Z,939.45
2022-11-03T07:54:16.994Z,939.47
2022-11-03T07:55:17.008Z,939.49
2022-11-03T07:56:17.097Z,939.47
2022-11-03T07:57:17.029Z,939.48
2022-11-03T07:58:17.042Z,939.48
2022-11-03T07:59:17.070Z,939.49
2022-11-03T08:00:17.068Z,939.49
2022-11-03T08:01:17.095Z,939.53
2022-11-03T08:02:17.183Z,939.54
2022-11-03T08:03:17.100Z,939.57
2022-11-03T08:04:17.112Z,939.58
2022-11-03T08:05:17.138Z,939.59
2022-11-03T08:06:19.798Z,939.60
2022-11-03T08:07:17.178Z,939.62
2022-11-03T08:08:17.157Z,939.61
2022-11-03T08:09:17.171Z,939.62
2022-11-03T08:10:17.183Z,939.70
2022-11-03T08:11:17.200Z,939.62
2022-11-03T08:12:17.215Z,939.66
2022-11-03T08:13:17.217Z,939.64
2022-11-03T08:14:17.229Z,939.66
2022-11-03T08:15:17.241Z,939.71
2022-11-03T08:16:17.253Z,939.62
2022-11-03T08:17:17.264Z,939.70
2022-11-03T08:18:17.277Z,939.70
2022-11-03T08:19:17.288Z,939.72
2022-11-03T08:20:17.298Z,939.77
2022-11-03T08:21:17.314Z,939.77
2022-11-03T08:22:17.325Z,939.84
2022-11-03T08:23:25.738Z,939.81
2022-11-03T08:24:17.363Z,939.81
2022-11-03T08:25:17.356Z,939.81
2022-11-03T08:26:17.370Z,939.84
2022-11-03T08:27:17.379Z,939.84
2022-11-03T08:28:17.391Z,939.82
2022-11-03T08:29:17.404Z,939.78
2022-11-03T08:30:17.414Z,939.78
2022-11-03T08:31:17.428Z,939.81
2022-11-03T08:32:17.439Z,939.83
2022-11-03T08:33:17.510Z,939.83
2022-11-03T08:34:17.460Z,939.85
2022-11-03T08:35:17.476Z,939.86
2022-11-03T08:36:17.603Z,939.89
2022-11-03T08:37:17.495Z,939.88
2022-11-03T08:38:17.509Z,939.92
2022-11-03T08:39:17.606Z,939.91
2022-11-03T08:40:17.532Z,939.94
2022-11-03T08:41:17.543Z,939.92
2022-11-03T08:42:17.554Z,939.91
2022-11-03T08:43:17.567Z,939.98
2022-11-03T08:44:17.580Z,939.93
2022-11-03T08:45:17.593Z,939.95
2022-11-03T08:46:18.474Z,939.95
2022-11-03T08:47:17.613Z,939.96
2022-11-03T08:48:17.624Z,939.98
2022-11-03T08:49:17.640Z,940.00
2022-11-03T08:50:17.650Z,940.00
2022-11-03T08:51:17.660Z,940.00
2022-11-03T08:52:17.672Z,940.06
2022-11-03T08:53:17.684Z,940.02
2022-11-03T08:54:17.696Z,940.05
2022-11-03T08:55:17.728Z,940.08
2022-11-03T08:56:20.463Z,940.10
2022-11-03T08:57:17.729Z,940.07
2022-11-03T08:58:17.742Z,940.16
2022-11-03T08:59:17.755Z,940.15
2022-11-03T09:00:17.770Z,940.18
2022-11-03T09:01:17.845Z,940.16
2022-11-03T09:02:17.845Z,940.17
2022-11-03T09:03:17.894Z,940.19
2022-11-03T09:04:17.852Z,940.27
2022-11-03T09:05:17.824Z,940.25
2022-11-03T09:06:17.835Z,940.25
2022-11-03T09:07:18.097Z,940.24
2022-11-03T09:11:17.942Z,940.28
2022-11-03T09:12:17.904Z,940.25
2022-11-03T09:13:17.915Z,940.29
2022-11-03T09:14:17.929Z,940.26
2022-11-03T09:15:17.940Z,940.33
2022-11-03T09:16:18.075Z,940.29
2022-11-03T09:17:17.966Z,940.28
2022-11-03T09:18:17.976Z,940.30
2022-11-03T09:19:17.985Z,940.33
2022-11-03T09:20:17.998Z,940.33
2022-11-03T09:21:18.009Z,940.34
2022-11-03T09:22:18.026Z,940.32
2022-11-03T09:23:18.032Z,940.34
2022-11-03T09:24:18.044Z,940.36
2022-11-03T09:25:18.056Z,940.35
2022-11-03T09:26:18.072Z,940.34
2022-11-03T09:27:18.128Z,940.33
2022-11-03T09:28:18.102Z,940.30
2022-11-03T09:29:18.099Z,940.31
2022-11-03T09:30:18.111Z,940.33
2022-11-03T09:31:18.123Z,940.31
2022-11-03T09:32:22.987Z,940.29
2022-11-03T09:33:18.149Z,940.36
2022-11-03T09:34:18.160Z,940.35
2022-11-03T09:35:18.170Z,940.36
2022-11-03T09:36:18.185Z,940.41
2022-11-03T09:37:18.195Z,940.44
2022-11-03T09:38:18.205Z,940.43
2022-11-03T09:39:18.218Z,940.51
2022-11-03T09:40:18.229Z,940.56
2022-11-03T09:41:26.499Z,940.52
2022-11-03T09:42:18.254Z,940.57
2022-11-03T09:43:18.288Z,940.60
2022-11-03T09:44:18.285Z,940.60
2022-11-03T09:45:18.289Z,940.62
2022-11-03T09:46:18.301Z,940.57
2022-11-03T09:47:18.311Z,940.63
2022-11-03T09:48:18.322Z,940.64
2022-11-03T09:49:18.337Z,940.60
2022-11-03T09:50:18.344Z,940.63
2022-11-03T09:51:18.359Z,940.65
2022-11-03T09:52:18.368Z,940.63
2022-11-03T09:53:18.380Z,940.69
2022-11-03T09:54:18.418Z,940.65
2022-11-03T09:55:18.409Z,940.69
2022-11-03T09:56:18.417Z,940.71
2022-11-03T09:57:18.426Z,940.65
2022-11-03T09:58:18.441Z,940.71
2022-11-03T09:59:18.468Z,940.71
2022-11-03T10:00:18.462Z,940.71
2022-11-03T10:01:18.550Z,940.70
2022-11-03T10:02:18.598Z,940.71
2022-11-03T10:03:18.499Z,940.77
2022-11-03T10:04:18.508Z,940.74
2022-11-03T10:05:18.520Z,940.70
2022-11-03T10:06:18.530Z,940.69
2022-11-03T10:07:18.544Z,940.72
2022-11-03T10:08:22.378Z,940.71
2022-11-03T10:09:18.564Z,940.75
2022-11-03T10:10:18.684Z,940.73
2022-11-03T10:11:18.590Z,940.75
2022-11-03T10:12:18.602Z,940.73
2022-11-03T10:13:18.614Z,940.75
2022-11-03T10:14:18.624Z,940.84
2022-11-03T10:15:18.738Z,940.82
2022-11-03T10:16:18.648Z,940.80
2022-11-03T10:17:18.660Z,940.87
2022-11-03T10:18:18.670Z,940.84
2022-11-03T10:19:18.684Z,940.83
2022-11-03T10:20:18.811Z,940.82
2022-11-03T10:21:18.704Z,940.86
2022-11-03T10:22:18.718Z,940.89
2022-11-03T10:23:18.728Z,940.87
2022-11-03T10:24:18.741Z,940.84
2022-11-03T10:25:18.751Z,940.87
2022-11-03T10:26:18.808Z,940.89
2022-11-03T10:27:18.775Z,940.82
2022-11-03T10:28:18.786Z,940.87
2022-11-03T10:30:18.816Z,940.88
2022-11-03T10:31:18.840Z,940.91
2022-11-03T10:32:18.842Z,940.92
2022-11-03T10:33:18.846Z,940.88
2022-11-03T10:34:18.858Z,940.87
2022-11-03T10:35:18.878Z,940.94
2022-11-03T10:36:18.886Z,940.94
2022-11-03T10:37:18.895Z,940.95
2022-11-03T10:38:18.902Z,940.97
2022-11-03T10:39:18.913Z,940.98
2022-11-03T10:40:46.799Z,941.00
2022-11-03T10:41:18.941Z,940.98
2022-11-03T10:42:18.948Z,940.98
2022-11-03T10:43:18.961Z,940.96
2022-11-03T10:44:18.971Z,940.97
2022-11-03T10:45:18.985Z,940.97
2022-11-03T10:47:19.025Z,940.98
2022-11-03T10:48:19.020Z,940.99
2022-11-03T10:49:19.039Z,941.00
2022-11-03T10:50:19.041Z,941.04
2022-11-03T10:51:19.062Z,941.01
2022-11-03T10:52:19.203Z,941.01
2022-11-03T10:53:19.132Z,940.99
2022-11-03T10:54:19.140Z,941.01
2022-11-03T10:55:22.071Z,941.03
2022-11-03T10:56:19.114Z,941.03
2022-11-03T10:57:19.122Z,941.06
2022-11-03T10:58:19.133Z,941.02
2022-11-03T10:59:19.160Z,941.00
2022-11-03T11:00:19.155Z,940.99
2022-11-03T11:01:19.321Z,941.03
2022-11-03T11:02:19.265Z,940.99
2022-11-03T11:03:20.884Z,941.03
2022-11-03T11:04:19.262Z,940.97
2022-11-03T11:05:19.213Z,940.99
2022-11-03T11:06:19.229Z,940.98
2022-11-03T11:07:19.253Z,941.02
2022-11-03T11:08:19.328Z,941.03
2022-11-03T11:09:19.262Z,941.02
2022-11-03T11:10:19.272Z,941.01
2022-11-03T11:11:19.284Z,941.04
2022-11-03T11:12:19.306Z,941.08
2022-11-03T11:13:19.342Z,941.07
2022-11-03T11:14:19.318Z,941.08
2022-11-03T11:15:19.345Z,941.11
2022-11-03T11:16:19.340Z,941.16
2022-11-03T11:17:19.370Z,941.16
2022-11-03T11:19:19.396Z,941.16
2022-11-03T11:20:19.392Z,941.16
2022-11-03T11:21:19.399Z,941.16
2022-11-03T11:22:19.414Z,941.17
2022-11-03T11:23:19.423Z,941.15
2022-11-03T11:24:19.434Z,941.16
2022-11-03T11:25:19.446Z,941.15
2022-11-03T11:26:19.458Z,941.20
2022-11-03T11:27:19.470Z,941.21
2022-11-03T11:28:19.482Z,941.20
2022-11-03T11:29:19.510Z,941.22
2022-11-03T11:30:19.521Z,941.23
2022-11-03T11:31:19.516Z,941.21
2022-11-03T11:32:19.525Z,941.20
2022-11-03T11:33:19.537Z,941.18
2022-11-03T11:34:19.552Z,941.24
2022-11-03T11:35:19.580Z,941.20
2022-11-03T11:36:19.573Z,941.22
2022-11-03T11:37:19.584Z,941.26
2022-11-03T11:38:19.596Z,941.29
2022-11-03T11:39:19.626Z,941.26
2022-11-03T11:40:19.619Z,941.24
2022-11-03T11:41:19.631Z,941.23
2022-11-03T11:42:19.753Z,941.23
2022-11-03T11:43:19.663Z,941.23
2022-11-03T11:44:19.665Z,941.22
2022-11-03T11:45:19.678Z,941.18
2022-11-03T11:46:19.687Z,941.23
2022-11-03T11:47:19.702Z,941.28
2022-11-03T11:48:19.709Z,941.25
2022-11-03T11:49:19.725Z,941.26
2022-11-03T11:50:19.733Z,941.24
2022-11-03T11:51:19.765Z,941.28
2022-11-03T11:52:19.757Z,941.27
2022-11-03T11:53:19.770Z,941.27
2022-11-03T11:54:19.792Z,941.27
2022-11-03T11:55:19.800Z,941.26
2022-11-03T11:56:19.806Z,941.26
2022-11-03T11:57:19.819Z,941.28
2022-11-03T11:58:19.828Z,941.28
2022-11-03T11:59:24.399Z,941.25
2022-11-03T12:00:19.866Z,941.26
2022-11-03T12:01:19.949Z,941.23
2022-11-03T12:02:19.875Z,941.25
2022-11-03T12:03:19.967Z,941.25
2022-11-03T12:04:19.925Z,941.23
2022-11-03T12:05:19.908Z,941.23
2022-11-03T12:06:19.924Z,941.22
2022-11-03T12:07:19.953Z,941.19
2022-11-03T12:08:19.940Z,941.21
2022-11-03T12:09:19.956Z,941.18
2022-11-03T12:10:19.965Z,941.22
2022-11-03T12:11:20.005Z,941.17
2022-11-03T12:12:19.989Z,941.23
2022-11-03T12:13:20.002Z,941.17
2022-11-03T12:14:20.014Z,941.18
2022-11-03T12:15:20.025Z,941.16
2022-11-03T12:16:20.036Z,941.20
2022-11-03T12:17:20.056Z,941.17
2022-11-03T12:18:20.058Z,941.22
2022-11-03T12:19:20.072Z,941.18
2022-11-03T12:20:20.081Z,941.20
2022-11-03T12:21:20.096Z,941.18
2022-11-03T12:22:20.179Z,941.20
2022-11-03T12:23:20.132Z,941.21
2022-11-03T12:24:20.127Z,941.19
2022-11-03T12:25:20.139Z,941.17
2022-11-03T12:26:20.161Z,941.20
2022-11-03T12:27:20.165Z,941.21
2022-11-03T12:28:20.175Z,941.20
2022-11-03T12:29:20.184Z,941.18
2022-11-03T12:30:20.202Z,941.16
2022-11-03T12:31:20.211Z,941.17
2022-11-03T12:32:33.173Z,941.17
2022-11-03T12:33:20.231Z,941.18
2022-11-03T12:34:20.244Z,941.18
2022-11-03T12:35:20.256Z,941.20
2022-11-03T12:36:20.273Z,941.17